Time;durP1;ratioP1;P1;durP2;ratioP2;P2;SDS_P1;SDS_P2;PMS_P1;PMS_P2;Temp;Humidity;BMP_temperature;BMP_pressure;BME280_temperature;BME280_humidity;BME280_pressure;Samples;Min_cycle;Max_cycle;Signal;HPM_P1;HPM_P2
2022/09/01 05:09:05;;;;;;;;;;;;;;;20.97;62.56;96852.47;4232912;27;10370;-70
2022/09/01 05:11:08;;;;;;;;;;;;;;;21.24;62.10;96850.50;4223818;28;5778;-70
2022/09/01 05:13:12;;;;;;;;;;;;;;;21.44;61.57;96855.22;4225213;27;5811;-69
2022/09/01 05:15:16;;;;;;;;;;;;;;;21.61;61.35;96847.75;4235288;27;5650;-69
2022/09/01 05:17:20;;;;;;;;;;;;;;;21.75;61.16;96856.19;4230405;27;5700;-70
2022/09/01 05:19:27;;;;;;;;;;;;;;;21.84;60.79;96851.09;4230886;28;6033;-69
2022/09/01 05:21:30;;;;;;;;;;;;;;;21.94;60.98;96862.69;4231433;28;5686;-70
2022/09/01 05:23:35;;;;;;;;;;;;;;;22.04;60.40;96868.13;4229964;28;5670;-70
2022/09/01 05:25:42;;;;;;;;;;;;;;;22.11;60.25;96864.41;4231185;28;5737;-70
2022/09/01 05:27:48;;;;;;;;;;;;;;;22.15;60.45;96871.69;4221536;28;5705;-70
2022/09/01 05:29:52;;;;;;;;;;;;;;;22.21;60.03;96864.44;4222210;28;5642;-69
2022/09/01 05:31:55;;;;;;;;;;;;;;;22.25;60.08;96874.41;4229497;28;5830;-69
2022/09/01 05:34:00;;;;;;;;;;;;;;;22.28;60.12;96868.47;4233314;27;5748;-69
2022/09/01 05:36:06;;;;;;;;;;;;;;;22.29;59.33;96875.50;4240896;27;5680;-69
2022/09/01 05:38:11;;;;;;;;;;;;;;;22.27;59.48;96872.25;4240306;27;5659;-69
2022/09/01 05:40:15;;;;;;;;;;;;;;;22.27;59.58;96871.44;4230901;28;6470;-69
2022/09/01 05:42:20;;;;;;;;;;;;;;;22.30;59.47;96877.09;4236780;27;5870;-70
2022/09/01 05:44:23;;;;;;;;;;;;;;;22.36;59.66;96880.63;4238402;27;5678;-70
2022/09/01 05:46:27;;;;;;;;;;;;;;;22.42;59.05;96879.56;4230818;28;5667;-70
2022/09/01 05:48:34;;;;;;;;;;;;;;;22.43;59.23;96875.81;4231013;28;5731;-70
2022/09/01 05:50:41;;;;;;;;;;;;;;;22.45;59.09;96880.94;4221686;28;5783;-70
2022/09/01 05:52:46;;;;;;;;;;;;;;;22.48;59.15;96872.31;4230609;28;5674;-71
2022/09/01 05:54:50;;;;;;;;;;;;;;;22.49;59.14;96873.91;4231041;28;5738;-71
2022/09/01 05:56:57;;;;;;;;;;;;;;;22.52;58.89;96863.41;4229026;28;5714;-70
2022/09/01 05:59:22;;;;;;;;;;;;;;;22.54;58.66;96863.97;4230293;28;5667;-70
2022/09/01 06:01:32;;;;;;;;;;;;;;;22.57;58.71;96866.13;4230625;27;5861;-69
2022/09/01 06:03:35;;;;;;;;;;;;;;;22.61;58.76;96861.81;4228420;28;5675;-68
2022/09/01 06:05:41;;;;;;;;;;;;;;;22.67;58.32;96863.44;4224012;28;5769;-70
2022/09/01 06:07:44;;;;;;;;;;;;;;;22.70;58.53;96863.97;4240857;27;5593;-70
2022/09/01 06:09:48;;;;;;;;;;;;;;;22.73;58.39;96864.25;4235023;27;5616;-70
2022/09/01 06:11:53;;;;;;;;;;;;;;;22.76;58.20;96861.00;4240868;27;5594;-71
2022/09/01 06:13:57;;;;;;;;;;;;;;;22.81;58.25;96865.59;4216066;28;5755;-70
2022/09/01 06:16:02;;;;;;;;;;;;;;;22.83;57.80;96868.84;4247238;27;5665;-70
2022/09/01 06:18:05;;;;;;;;;;;;;;;22.84;57.95;96875.88;4246411;27;5722;-70
2022/09/01 06:20:09;;;;;;;;;;;;;;;22.86;57.94;96869.13;4235741;28;6347;-69
2022/09/01 06:22:12;;;;;;;;;;;;;;;22.91;57.63;96874.53;4236036;28;5679;-69
2022/09/01 06:24:16;;;;;;;;;;;;;;;22.96;58.02;96871.00;4236061;28;6295;-70
2022/09/01 06:26:22;;;;;;;;;;;;;;;22.99;57.35;96873.19;4235536;28;6926;-69
2022/09/01 06:28:27;;;;;;;;;;;;;;;22.99;57.69;96875.88;4235640;28;5720;-69
2022/09/01 06:30:35;;;;;;;;;;;;;;;23.03;57.28;96874.25;4235672;28;5669;-69
2022/09/01 06:32:42;;;;;;;;;;;;;;;23.04;57.46;96880.47;4235891;28;5739;-70
2022/09/01 06:34:50;;;;;;;;;;;;;;;23.04;57.38;96886.66;4235936;28;5621;-70
2022/09/01 06:36:54;;;;;;;;;;;;;;;23.06;57.34;96884.50;4235971;28;5624;-70
2022/09/01 06:38:56;;;;;;;;;;;;;;;23.05;57.53;96888.28;4217309;28;5795;-70
2022/09/01 06:41:02;;;;;;;;;;;;;;;23.05;56.94;96882.88;4234985;28;5589;-69
2022/09/01 06:43:07;;;;;;;;;;;;;;;23.08;56.83;96889.63;4235622;28;5512;-70
2022/09/01 06:45:11;;;;;;;;;;;;;;;23.11;56.75;96883.69;4235710;28;5497;-70
2022/09/01 06:47:15;;;;;;;;;;;;;;;23.12;56.79;96885.31;4235733;28;5509;-70
2022/09/01 06:49:20;;;;;;;;;;;;;;;23.10;57.03;96880.16;4236007;28;5765;-70
2022/09/01 06:51:24;;;;;;;;;;;;;;;23.12;57.23;96886.13;4217108;28;5671;-70
2022/09/01 06:53:27;;;;;;;;;;;;;;;23.13;56.79;96892.31;4235610;28;5708;-71
2022/09/01 06:55:36;;;;;;;;;;;;;;;23.15;56.60;96884.75;4247004;27;5616;-70
2022/09/01 06:57:40;;;;;;;;;;;;;;;23.19;56.87;96894.72;4248222;27;5617;-69
2022/09/01 07:00:16;;;;;;;;;;;;;;;23.24;56.73;96888.53;4232555;28;5617;-69
2022/09/01 07:02:21;;;;;;;;;;;;;;;23.26;56.34;96886.38;4217173;28;5698;-69
2022/09/01 07:04:31;;;;;;;;;;;;;;;23.27;56.23;96893.38;4235241;28;5715;-69
2022/09/01 07:06:35;;;;;;;;;;;;;;;23.27;56.24;96887.19;4235179;28;5613;-70
2022/09/01 07:09:00;;;;;;;;;;;;;;;23.29;56.03;96888.50;4242951;27;6870;-69
2022/09/01 07:11:26;;;;;;;;;;;;;;;23.33;56.40;96886.91;4216875;28;5769;-69
2022/09/01 07:13:49;;;;;;;;;;;;;;;23.29;56.19;96887.72;4217625;28;5785;-69
2022/09/01 07:16:17;;;;;;;;;;;;;;;23.27;56.30;96884.47;4225280;28;5641;-69
2022/09/01 07:18:40;;;;;;;;;;;;;;;;;;4235192;28;5690;-70
2022/09/01 07:20:47;;;;;;;;;;;;;;;23.36;55.87;96894.47;4234283;28;5611;-70
2022/09/01 07:23:11;;;;;;;;;;;;;;;23.43;55.64;96894.16;4235157;28;5652;-70
2022/09/01 07:25:16;;;;;;;;;;;;;;;23.47;55.73;96897.94;4234882;28;5789;-69
2022/09/01 07:27:19;;;;;;;;;;;;;;;23.47;55.67;96895.25;4234985;28;5699;-70
2022/09/01 07:29:27;;;;;;;;;;;;;;;23.49;55.90;96898.47;4234740;28;5834;-70
2022/09/01 07:31:39;;;;;;;;;;;;;;;23.50;55.72;96900.09;4235137;28;5099;-69
2022/09/01 07:34:04;;;;;;;;;;;;;;;23.53;55.38;96902.22;4234430;28;5632;-69
2022/09/01 07:36:29;;;;;;;;;;;;;;;23.49;55.71;96893.88;4234643;28;5701;-69
2022/09/01 07:38:32;;;;;;;;;;;;;;;23.48;55.74;96892.28;4234646;28;5593;-69
2022/09/01 07:40:55;;;;;;;;;;;;;;;23.50;55.34;96900.09;4232745;28;5612;-69
2022/09/01 07:43:21;;;;;;;;;;;;;;;23.50;55.32;96894.69;4233384;28;5720;-69
2022/09/01 07:45:24;;;;;;;;;;;;;;;23.53;55.28;96891.44;4234835;28;6265;-69
2022/09/01 07:47:28;;;;;;;;;;;;;;;23.56;55.27;96888.22;4234724;28;5872;-70
2022/09/01 07:49:52;;;;;;;;;;;;;;;23.60;55.40;96897.41;4234589;28;5605;-69
2022/09/01 07:52:17;;;;;;;;;;;;;;;23.60;54.92;96892.00;4234544;28;5620;-68
2022/09/01 07:54:24;;;;;;;;;;;;;;;23.65;55.44;96900.06;4234644;28;5776;-69
2022/09/01 07:56:30;;;;;;;;;;;;;;;23.71;55.46;96899.00;4234602;28;5688;-69
2022/09/01 07:58:42;;;;;;;;;;;;;;;23.78;54.98;96901.38;4233787;28;5593;-69
2022/09/01 08:00:46;;;;;;;;;;;;;;;23.83;55.04;96901.38;4234672;27;6262;-69
2022/09/01 08:02:50;;;;;;;;;;;;;;;23.85;54.90;96898.41;4241157;27;6290;-69
2022/09/01 08:04:59;;;;;;;;;;;;;;;23.85;54.47;96893.81;4234562;28;5663;-69
2022/09/01 08:07:03;;;;;;;;;;;;;;;23.87;54.67;96894.34;4234250;28;5488;-69
2022/09/01 08:09:07;;;;;;;;;;;;;;;23.92;54.72;96896.22;4200762;28;5701;-69
2022/09/01 08:11:18;;;;;;;;;;;;;;;23.93;54.37;96897.84;4200743;28;5712;-69
2022/09/01 08:13:41;;;;;;;;;;;;;;;23.94;54.38;96899.47;4199928;28;5692;-69
2022/09/01 08:15:45;;;;;;;;;;;;;;;23.92;54.48;96897.03;4198135;28;5797;-69
2022/09/01 08:18:08;;;;;;;;;;;;;;;23.95;54.72;96895.66;4183851;28;5729;-69
2022/09/01 08:20:12;;;;;;;;;;;;;;;23.96;54.26;96891.88;4185559;28;5733;-69
2022/09/01 08:22:16;;;;;;;;;;;;;;;23.97;54.30;96893.50;4217251;28;5675;-69
2022/09/01 08:24:23;;;;;;;;;;;;;;;23.97;54.06;96899.72;4208342;28;5777;-69
2022/09/01 08:26:26;;;;;;;;;;;;;;;23.93;54.31;96904.06;4200351;28;6052;-69
2022/09/01 08:28:29;;;;;;;;;;;;;;;23.88;53.93;96897.84;4199820;28;5688;-68
2022/09/01 08:30:33;;;;;;;;;;;;;;;23.83;54.09;96906.78;4200487;28;5803;-69
2022/09/01 08:32:37;;;;;;;;;;;;;;;23.83;54.40;96895.19;4202733;28;5845;-70
2022/09/01 08:34:42;;;;;;;;;;;;;;;23.80;54.05;96899.25;4217009;28;5819;-69
2022/09/01 08:36:45;;;;;;;;;;;;;;;23.72;54.18;96892.50;4216921;28;5702;-69
2022/09/01 08:38:48;;;;;;;;;;;;;;;23.73;54.23;96886.03;4216430;28;5766;-67
2022/09/01 08:40:58;;;;;;;;;;;;;;;23.83;54.66;96890.59;4212241;28;5767;-67
2022/09/01 08:43:14;;;;;;;;;;;;;;;23.87;53.99;96891.63;4200255;28;5691;-67
2022/09/01 08:45:22;;;;;;;;;;;;;;;23.91;54.28;96894.63;4199755;28;5760;-67
2022/09/01 08:47:26;;;;;;;;;;;;;;;23.95;53.94;96895.66;4200101;28;5830;-67
2022/09/01 08:49:49;;;;;;;;;;;;;;;23.98;54.14;96889.72;4200289;28;5789;-67
2022/09/01 08:51:57;;;;;;;;;;;;;;;23.93;54.10;96892.44;4200061;28;5703;-67
2022/09/01 08:54:13;;;;;;;;;;;;;;;23.87;54.18;96896.22;4200008;28;5724;-68
2022/09/01 08:56:22;;;;;;;;;;;;;;;23.85;54.21;96891.13;4200112;28;5692;-68
2022/09/01 08:58:29;;;;;;;;;;;;;;;23.87;53.96;96896.22;4199422;28;5711;-67
2022/09/01 09:00:42;;;;;;;;;;;;;;;23.90;54.24;96896.50;4199931;28;5809;-66
2022/09/01 09:02:58;;;;;;;;;;;;;;;23.94;54.18;96896.75;4192089;28;5696;-67
2022/09/01 09:05:08;;;;;;;;;;;;;;;23.96;53.79;96897.28;4199943;28;5704;-68
2022/09/01 09:07:31;;;;;;;;;;;;;;;23.95;53.82;96893.78;4203778;28;5788;-67
2022/09/01 09:09:41;;;;;;;;;;;;;;;23.93;53.87;96892.44;4233344;28;5651;-67
2022/09/01 09:12:02;;;;;;;;;;;;;;;23.93;54.20;96893.25;4233718;28;6322;-67
2022/09/01 09:14:14;;;;;;;;;;;;;;;23.96;54.08;96891.88;4233391;28;5609;-68
2022/09/01 09:16:22;;;;;;;;;;;;;;;24.03;53.61;96889.72;4232233;28;5695;-68
2022/09/01 09:18:32;;;;;;;;;;;;;;;24.06;53.51;96881.84;4234485;27;5800;-68
2022/09/01 09:20:42;;;;;;;;;;;;;;;24.05;53.76;96890.22;4222541;28;5620;-68
2022/09/01 09:22:48;;;;;;;;;;;;;;;24.02;53.43;96883.50;4233559;28;5593;-67
2022/09/01 09:24:59;;;;;;;;;;;;;;;24.06;53.52;96881.03;4233710;28;5601;-68
2022/09/01 09:27:03;;;;;;;;;;;;;;;24.08;53.49;96878.88;4233556;28;5728;-68
2022/09/01 09:29:08;;;;;;;;;;;;;;;24.08;53.26;96884.28;4233412;28;5702;-68
2022/09/01 09:31:32;;;;;;;;;;;;;;;24.04;53.34;96891.31;4233532;28;5651;-68
2022/09/01 09:33:39;;;;;;;;;;;;;;;24.02;53.83;96885.41;4216950;28;5706;-68
2022/09/01 09:35:56;;;;;;;;;;;;;;;24.02;54.06;96886.19;4228929;28;5783;-68
2022/09/01 09:38:21;;;;;;;;;;;;;;;24.08;53.59;96890.47;4233700;28;5612;-68
2022/09/01 09:40:27;;;;;;;;;;;;;;;24.11;53.64;96886.41;4233514;28;5800;-68
2022/09/01 09:42:31;;;;;;;;;;;;;;;24.13;53.42;96886.97;4233484;28;8328;-68
2022/09/01 09:44:43;;;;;;;;;;;;;;;24.12;53.51;96885.31;4234957;28;5680;-68
2022/09/01 09:46:47;;;;;;;;;;;;;;;24.09;53.52;96885.88;4236600;28;5608;-68
2022/09/01 09:49:07;;;;;;;;;;;;;;;24.16;53.61;96886.41;4236341;28;5614;-68
2022/09/01 09:51:17;;;;;;;;;;;;;;;24.22;53.65;96885.28;4236638;28;6275;-67
2022/09/01 09:53:28;;;;;;;;;;;;;;;24.21;53.64;96883.66;4236571;28;5620;-68
2022/09/01 09:55:32;;;;;;;;;;;;;;;24.15;53.66;96884.78;4236633;28;5608;-67
2022/09/01 09:57:40;;;;;;;;;;;;;;;24.06;53.55;96881.84;4236233;28;5680;-66
2022/09/01 09:59:47;;;;;;;;;;;;;;;24.05;53.66;96891.03;4236227;28;5605;-67
2022/09/01 10:02:24;;;;;;;;;;;;;;;24.06;53.83;96881.84;4236218;28;5597;-67
2022/09/01 10:04:36;;;;;;;;;;;;;;;24.14;53.96;96882.38;4236455;28;5806;-66
2022/09/01 10:06:44;;;;;;;;;;;;;;;24.18;53.63;96883.41;4236133;28;5592;-67
2022/09/01 10:08:46;;;;;;;;;;;;;;;24.16;53.40;96880.19;4235787;28;5620;-67
2022/09/01 10:10:51;;;;;;;;;;;;;;;24.09;53.82;96875.88;4236197;28;5601;-68
2022/09/01 10:13:02;;;;;;;;;;;;;;;24.01;54.07;96871.09;4219488;28;5659;-67
2022/09/01 10:15:09;;;;;;;;;;;;;;;24.00;53.97;96879.44;4219094;28;5785;-67
2022/09/01 10:17:19;;;;;;;;;;;;;;;24.00;53.80;96882.13;4219402;28;5662;-66
2022/09/01 10:19:23;;;;;;;;;;;;;;;24.05;54.00;96866.75;4219268;28;5635;-67
2022/09/01 10:21:30;;;;;;;;;;;;;;;24.08;54.06;96873.47;4219476;28;5631;-68
2022/09/01 10:23:36;;;;;;;;;;;;;;;24.09;53.89;96872.38;4224367;28;5623;-67
2022/09/01 10:25:43;;;;;;;;;;;;;;;24.08;53.57;96868.06;4219300;28;5631;-66
2022/09/01 10:27:56;;;;;;;;;;;;;;;24.13;53.93;96867.25;4234927;28;5620;-67
2022/09/01 10:30:08;;;;;;;;;;;;;;;24.21;53.83;96872.84;4230643;28;5088;-67
2022/09/01 10:32:19;;;;;;;;;;;;;;;24.33;53.69;96872.56;4221320;28;5600;-67
2022/09/01 10:34:40;;;;;;;;;;;;;;;24.38;53.49;96867.94;4233817;28;6333;-67
2022/09/01 10:36:46;;;;;;;;;;;;;;;24.46;53.64;96868.41;4239792;27;5590;-66
2022/09/01 10:38:58;;;;;;;;;;;;;;;24.51;53.37;96869.22;4253054;27;5672;-66
2022/09/01 10:41:08;;;;;;;;;;;;;;;24.52;53.38;96868.13;4243860;27;5673;-67
2022/09/01 10:43:33;;;;;;;;;;;;;;;24.55;53.25;96872.97;4252806;27;5771;-67
2022/09/01 10:45:43;;;;;;;;;;;;;;;24.53;52.97;96877.84;4235749;28;5713;-68
2022/09/01 10:47:57;;;;;;;;;;;;;;;24.49;53.29;96873.28;4235768;28;5785;-68
2022/09/01 10:50:03;;;;;;;;;;;;;;;24.45;53.15;96870.31;4235834;28;5695;-68
2022/09/01 10:52:53;;;;;;;;;;;;;;;24.47;53.37;96867.38;4215147;28;5769;-68
2022/09/01 10:55:01;;;;;;;;;;;;;;;24.47;53.58;96865.47;4218600;28;5611;-67
2022/09/01 10:57:09;;;;;;;;;;;;;;;24.46;53.17;96868.41;4229421;27;5606;-67
2022/09/01 10:59:26;;;;;;;;;;;;;;;24.51;53.32;96871.09;4233856;28;5657;-68
2022/09/01 11:02:09;;;;;;;;;;;;;;;24.50;53.33;96864.09;4244905;27;5768;-68
2022/09/01 11:05:13;;;;;;;;;;;;;;;24.46;53.14;96863.00;4235282;28;5617;-66
2022/09/01 11:07:31;;;;;;;;;;;;;;;24.48;53.58;96858.16;4234916;28;5620;-67
2022/09/01 11:10:31;;;;;;;;;;;;;;;24.52;53.25;96862.72;4234734;28;5612;-67
2022/09/01 11:12:47;;;;;;;;;;;;;;;24.59;53.25;96862.41;4234845;28;5660;-67
2022/09/01 11:14:53;;;;;;;;;;;;;;;24.62;53.01;96859.16;4234570;28;5680;-67
2022/09/01 11:17:17;;;;;;;;;;;;;;;24.64;52.69;96857.78;4222856;28;5623;-67
2022/09/01 11:19:39;;;;;;;;;;;;;;;24.67;53.17;96854.50;4233943;27;5604;-67
2022/09/01 11:21:44;;;;;;;;;;;;;;;24.74;52.61;96848.78;4252181;27;5577;-67
2022/09/01 11:23:47;;;;;;;;;;;;;;;24.76;52.58;96854.69;4248623;27;5802;-67
2022/09/01 11:25:51;;;;;;;;;;;;;;;24.79;52.44;96856.03;4235197;28;5086;-67
2022/09/01 11:28:38;;;;;;;;;;;;;;;24.82;52.79;96856.28;4234547;28;5768;-67
2022/09/01 11:30:51;;;;;;;;;;;;;;;24.85;52.41;96861.13;4234380;28;5608;-67
2022/09/01 11:33:07;;;;;;;;;;;;;;;24.86;52.26;96854.63;4235011;28;5612;-68
2022/09/01 11:35:17;;;;;;;;;;;;;;;24.88;52.15;96860.56;4234944;28;5592;-67
2022/09/01 11:37:23;;;;;;;;;;;;;;;24.85;52.55;96866.53;4249279;27;5585;-67
2022/09/01 11:39:37;;;;;;;;;;;;;;;24.80;52.14;96855.75;4251984;27;5594;-67
2022/09/01 11:41:52;;;;;;;;;;;;;;;24.81;52.31;96860.09;4251809;27;5761;-67
2022/09/01 11:44:12;;;;;;;;;;;;;;;24.86;52.14;96851.91;4251444;27;5626;-67
2022/09/01 11:46:23;;;;;;;;;;;;;;;24.86;52.05;96860.03;4251646;27;5689;-67
2022/09/01 11:48:29;;;;;;;;;;;;;;;24.87;52.23;96852.72;4241757;27;5663;-67
2022/09/01 11:50:33;;;;;;;;;;;;;;;24.85;52.01;96854.91;4234634;28;5816;-67
2022/09/01 11:52:40;;;;;;;;;;;;;;;24.81;52.12;96854.69;4234540;28;5668;-67
2022/09/01 11:54:45;;;;;;;;;;;;;;;24.74;52.26;96847.97;4234716;28;5604;-68
2022/09/01 11:56:48;;;;;;;;;;;;;;;24.70;52.28;96853.16;4231978;28;5754;-67
2022/09/01 11:58:51;;;;;;;;;;;;;;;24.65;51.81;96842.34;4238665;27;5748;-67
2022/09/01 12:00:55;;;;;;;;;;;;;;;24.62;51.92;96840.22;4249673;27;5686;-67
2022/09/01 12:03:00;;;;;;;;;;;;;;;24.61;52.12;96842.13;4241110;27;5927;-67
2022/09/01 12:05:25;;;;;;;;;;;;;;;24.66;52.07;96838.56;4244984;27;5746;-68
2022/09/01 12:07:39;;;;;;;;;;;;;;;24.71;52.09;96840.44;4242180;27;5912;-67
2022/09/01 12:09:44;;;;;;;;;;;;;;;24.75;51.88;96836.06;4215814;28;5695;-68
2022/09/01 12:11:50;;;;;;;;;;;;;;;24.77;51.58;96831.97;4216280;28;5682;-68
2022/09/01 12:13:59;;;;;;;;;;;;;;;24.77;51.55;96829.28;4234001;28;5613;-68
2022/09/01 12:16:05;;;;;;;;;;;;;;;24.76;51.88;96833.06;4234298;28;5971;-68
2022/09/01 12:18:26;;;;;;;;;;;;;;;24.73;51.66;96830.94;4234357;28;5497;-68
2022/09/01 12:20:37;;;;;;;;;;;;;;;24.75;51.45;96834.16;4234421;28;5517;-68
2022/09/01 12:22:43;;;;;;;;;;;;;;;24.78;51.68;96825.50;4233946;28;5600;-68
2022/09/01 12:24:48;;;;;;;;;;;;;;;24.77;51.69;96826.56;4234004;28;5649;-68
2022/09/01 12:26:54;;;;;;;;;;;;;;;24.78;51.48;96830.91;4233925;28;5604;-69
2022/09/01 12:28:58;;;;;;;;;;;;;;;24.80;51.89;96819.78;4233643;28;5794;-68
2022/09/01 12:31:05;;;;;;;;;;;;;;;24.76;51.13;96818.75;4234285;28;5604;-68
2022/09/01 12:33:12;;;;;;;;;;;;;;;24.71;51.40;96821.50;4233947;28;5604;-68
2022/09/01 12:35:27;;;;;;;;;;;;;;;24.64;51.35;96811.81;4234192;28;5608;-68
2022/09/01 12:37:31;;;;;;;;;;;;;;;24.63;51.53;96810.22;4234141;28;5605;-69
2022/09/01 12:39:36;;;;;;;;;;;;;;;24.66;51.79;96808.81;4233890;28;5605;-68
2022/09/01 12:41:41;;;;;;;;;;;;;;;24.68;51.63;96815.56;4234282;28;5600;-68
2022/09/01 12:43:44;;;;;;;;;;;;;;;24.73;51.50;96813.91;4233728;28;5760;-68
2022/09/01 12:45:48;;;;;;;;;;;;;;;24.76;51.26;96816.06;4233975;28;5604;-68
2022/09/01 12:47:52;;;;;;;;;;;;;;;24.74;51.53;96815.53;4215592;28;5663;-67
2022/09/01 12:49:55;;;;;;;;;;;;;;;24.67;51.18;96810.44;4233708;28;7663;-67
2022/09/01 12:52:18;;;;;;;;;;;;;;;24.64;51.34;96816.41;4233929;28;5688;-67
2022/09/01 12:54:26;;;;;;;;;;;;;;;24.63;51.64;96810.22;4234096;28;5818;-67
2022/09/01 12:56:31;;;;;;;;;;;;;;;24.65;51.81;96813.44;4233704;28;7677;-67
2022/09/01 12:58:35;;;;;;;;;;;;;;;24.67;51.40;96811.25;4233123;28;5605;-66
2022/09/01 13:00:56;;;;;;;;;;;;;;;24.66;51.87;96808.81;4233549;28;5688;-67
2022/09/01 13:03:12;;;;;;;;;;;;;;;24.64;51.60;96805.59;4226203;28;5716;-67
2022/09/01 13:05:24;;;;;;;;;;;;;;;24.58;52.02;96812.97;4233861;28;5608;-67
2022/09/01 13:07:33;;;;;;;;;;;;;;;24.55;51.60;96807.28;4232914;28;6322;-67
2022/09/01 13:09:40;;;;;;;;;;;;;;;24.51;52.00;96806.25;4233697;28;5604;-67
2022/09/01 13:11:46;;;;;;;;;;;;;;;24.54;51.60;96801.09;4232725;28;5606;-67
2022/09/01 13:14:09;;;;;;;;;;;;;;;24.59;51.98;96798.34;4232885;28;5609;-67
2022/09/01 13:16:13;;;;;;;;;;;;;;;24.61;51.84;96806.19;4233425;28;5616;-68
2022/09/01 13:18:20;;;;;;;;;;;;;;;24.56;51.91;96804.31;4233329;28;5743;-67
2022/09/01 13:20:26;;;;;;;;;;;;;;;24.58;51.90;96801.34;4236749;28;5596;-67
2022/09/01 13:22:30;;;;;;;;;;;;;;;24.58;51.77;96798.66;4235023;28;5594;-67
2022/09/01 13:24:33;;;;;;;;;;;;;;;24.56;51.81;96798.91;4237046;28;5612;-68
2022/09/01 13:26:45;;;;;;;;;;;;;;;24.58;51.66;96795.94;4237071;28;5682;-67
2022/09/01 13:29:08;;;;;;;;;;;;;;;24.65;51.93;96796.41;4236741;28;5743;-67
2022/09/01 13:31:11;;;;;;;;;;;;;;;24.71;51.85;96795.28;4236812;28;5604;-67
2022/09/01 13:33:36;;;;;;;;;;;;;;;24.74;51.81;96786.59;4236665;28;5597;-67
2022/09/01 13:35:59;;;;;;;;;;;;;;;24.75;51.64;96784.69;4236778;28;5676;-67
2022/09/01 13:38:03;;;;;;;;;;;;;;;24.77;51.82;96787.91;4236617;28;5608;-67
2022/09/01 13:40:07;;;;;;;;;;;;;;;24.74;51.52;96778.50;4214619;28;5788;-67
2022/09/01 13:42:12;;;;;;;;;;;;;;;24.75;51.43;96782.81;4219537;28;5628;-68
2022/09/01 13:44:17;;;;;;;;;;;;;;;24.79;51.88;96780.34;4214493;28;5818;-72
2022/09/01 13:46:21;;;;;;;;;;;;;;;24.81;51.67;96780.88;4227294;27;5784;-79
2022/09/01 13:48:23;;;;;;;;;;;;;;;24.82;51.55;96777.88;4224055;27;5608;-76
2022/09/01 13:50:48;;;;;;;;;;;;;;;24.85;51.33;96768.41;4232366;28;5746;-80
2022/09/01 13:53:12;;;;;;;;;;;;;;;24.86;51.45;96762.69;4219624;28;5624;-71
2022/09/01 13:55:19;;;;;;;;;;;;;;;24.90;51.60;96771.03;4227771;28;5615;-76
2022/09/01 13:57:24;;;;;;;;;;;;;;;24.89;51.33;96764.81;4235573;28;5632;-73
2022/09/01 13:59:29;;;;;;;;;;;;;;;24.87;51.63;96766.22;4225591;28;5684;-74
2022/09/01 14:01:31;;;;;;;;;;;;;;;24.85;51.25;96774.59;4226862;28;5609;-68
2022/09/01 14:03:35;;;;;;;;;;;;;;;24.88;51.63;96773.22;4235175;28;5649;-71
2022/09/01 14:05:41;;;;;;;;;;;;;;;24.89;51.18;96772.94;4232187;28;5688;-72
2022/09/01 14:07:44;;;;;;;;;;;;;;;24.91;51.63;96772.66;4229156;28;5661;-75
2022/09/01 14:09:47;;;;;;;;;;;;;;;24.93;51.28;96765.09;4232805;27;5605;-69
2022/09/01 14:11:52;;;;;;;;;;;;;;;24.96;51.45;96767.19;4222571;28;5623;-69
2022/09/01 14:13:56;;;;;;;;;;;;;;;24.99;51.27;96774.75;4230731;28;5613;-67
2022/09/01 14:16:00;;;;;;;;;;;;;;;25.00;51.52;96770.94;4236455;27;5628;-70
2022/09/01 14:18:04;;;;;;;;;;;;;;;25.01;51.33;96761.75;4234886;28;5641;-68
2022/09/01 14:20:11;;;;;;;;;;;;;;;25.03;51.53;96761.47;4236071;28;5604;-66
2022/09/01 14:22:14;;;;;;;;;;;;;;;25.04;51.51;96755.81;4236382;28;5670;-73
2022/09/01 14:24:18;;;;;;;;;;;;;;;25.05;51.52;96741.19;4237716;28;5663;-87
2022/09/01 14:26:22;;;;;;;;;;;;;;;25.07;51.51;96749.00;4236653;27;5605;-76
2022/09/01 14:28:30;;;;;;;;;;;;;;;25.06;51.51;96745.50;4233839;27;5612;-73
2022/09/01 14:30:34;;;;;;;;;;;;;;;25.06;51.43;96737.38;4221731;28;5611;-80
2022/09/01 14:32:38;;;;;;;;;;;;;;;25.07;51.07;96732.78;4235591;27;5748;-81
2022/09/01 14:34:40;;;;;;;;;;;;;;;25.08;51.11;96734.38;4245150;27;5594;-81
2022/09/01 14:36:43;;;;;;;;;;;;;;;25.10;51.23;96721.38;4233679;27;5631;-81
2022/09/01 14:38:48;;;;;;;;;;;;;;;25.10;51.19;96721.38;4238643;27;5601;-69
2022/09/01 14:40:52;;;;;;;;;;;;;;;25.11;50.88;96737.31;4236112;27;5608;-73
2022/09/01 14:42:56;;;;;;;;;;;;;;;25.12;51.00;96730.00;4233854;28;5732;-82
2022/09/01 14:45:00;;;;;;;;;;;;;;;25.12;51.00;96735.41;4231196;28;5649;-76
2022/09/01 14:47:05;;;;;;;;;;;;;;;25.11;51.38;96731.91;4232334;28;5696;-77
2022/09/01 14:49:15;;;;;;;;;;;;;;;25.13;50.81;96732.41;4232230;28;5687;-72
2022/09/01 14:51:27;;;;;;;;;;;;;;;25.14;51.14;96733.22;4234481;28;6046;-72
2022/09/01 14:53:50;;;;;;;;;;;;;;;25.14;50.70;96734.06;4226261;28;5842;-69
2022/09/01 14:55:53;;;;;;;;;;;;;;;25.14;51.12;96727.81;4247581;27;5574;-69
2022/09/01 14:57:59;;;;;;;;;;;;;;;25.16;50.76;96731.06;4252166;27;5966;-69
2022/09/01 15:00:04;;;;;;;;;;;;;;;25.16;51.11;96725.66;4252283;27;5613;-69
2022/09/01 15:02:09;;;;;;;;;;;;;;;25.17;50.64;96727.25;4250258;27;5661;-68
2022/09/01 15:04:12;;;;;;;;;;;;;;;25.18;50.91;96724.25;4218029;28;5612;-67
2022/09/01 15:06:16;;;;;;;;;;;;;;;25.19;50.98;96714.25;4199979;28;5693;-68
2022/09/01 15:08:22;;;;;;;;;;;;;;;25.22;51.05;96724.47;4191414;28;5649;-67
2022/09/01 15:10:26;;;;;;;;;;;;;;;25.22;50.65;96716.38;4200701;28;5689;-68
2022/09/01 15:12:30;;;;;;;;;;;;;;;25.22;50.95;96714.47;4188159;28;5736;-68
2022/09/01 15:14:33;;;;;;;;;;;;;;;25.24;50.99;96709.56;4194891;28;5686;-67
2022/09/01 15:16:38;;;;;;;;;;;;;;;25.25;50.42;96707.66;4201606;28;5709;-68
2022/09/01 15:18:42;;;;;;;;;;;;;;;25.25;50.71;96708.47;4201654;28;6459;-67
2022/09/01 15:20:47;;;;;;;;;;;;;;;25.27;50.52;96700.09;4188501;28;5840;-67
2022/09/01 15:22:50;;;;;;;;;;;;;;;25.27;50.64;96699.28;4209940;28;5925;-67
2022/09/01 15:24:53;;;;;;;;;;;;;;;25.28;50.34;96701.69;4206279;28;5698;-68
2022/09/01 15:26:56;;;;;;;;;;;;;;;25.27;50.34;96700.09;4199568;28;6952;-68
2022/09/01 15:29:00;;;;;;;;;;;;;;;25.25;50.28;96705.75;4199921;28;5751;-68
2022/09/01 15:31:03;;;;;;;;;;;;;;;25.26;50.48;96709.31;4195077;28;5652;-68
2022/09/01 15:33:07;;;;;;;;;;;;;;;25.26;50.27;96703.91;4199738;28;5776;-68
2022/09/01 15:35:18;;;;;;;;;;;;;;;25.26;50.47;96709.31;4200181;28;5681;-67
2022/09/01 15:37:21;;;;;;;;;;;;;;;25.27;50.34;96704.69;4197000;28;5752;-67
2022/09/01 15:39:25;;;;;;;;;;;;;;;25.27;50.18;96705.50;4198362;28;5676;-64
2022/09/01 15:41:37;;;;;;;;;;;;;;;25.29;50.09;96702.50;4193547;28;5696;-68
2022/09/01 15:43:40;;;;;;;;;;;;;;;25.29;50.07;96697.91;4205463;28;5663;-68
2022/09/01 15:45:46;;;;;;;;;;;;;;;25.30;50.53;96693.28;4195539;28;5712;-69
2022/09/01 15:47:49;;;;;;;;;;;;;;;25.31;50.46;96698.41;4199278;28;5832;-68
2022/09/01 15:49:52;;;;;;;;;;;;;;;25.32;50.13;96696.50;4199636;28;6400;-68
2022/09/01 15:51:56;;;;;;;;;;;;;;;25.30;50.02;96699.50;4199305;28;5668;-67
2022/09/01 15:54:02;;;;;;;;;;;;;;;25.30;50.07;96693.28;4199214;28;5788;-69
2022/09/01 15:56:05;;;;;;;;;;;;;;;25.29;50.07;96700.59;4199197;28;5659;-68
2022/09/01 15:58:08;;;;;;;;;;;;;;;25.27;50.33;96691.97;4199268;28;5892;-68
2022/09/01 16:00:13;;;;;;;;;;;;;;;25.28;50.00;96699.00;4199227;28;5736;-68
2022/09/01 16:02:19;;;;;;;;;;;;;;;25.29;50.37;96697.91;4199399;28;5697;-68
2022/09/01 16:04:23;;;;;;;;;;;;;;;25.32;50.33;96702.72;4199609;28;5684;-68
2022/09/01 16:06:30;;;;;;;;;;;;;;;25.32;50.25;96702.72;4199466;28;5791;-67
2022/09/01 16:08:35;;;;;;;;;;;;;;;25.33;50.06;96708.94;4223737;28;5620;-68
2022/09/01 16:10:41;;;;;;;;;;;;;;;25.31;50.14;96703.81;4230266;28;5485;-68
2022/09/01 16:12:51;;;;;;;;;;;;;;;25.32;50.01;96705.44;4233470;28;5513;-68
2022/09/01 16:14:54;;;;;;;;;;;;;;;25.31;50.06;96695.69;4232834;28;5809;-68
2022/09/01 16:17:03;;;;;;;;;;;;;;;25.32;49.82;96705.44;4232722;28;5608;-67
2022/09/01 16:19:17;;;;;;;;;;;;;;;25.34;49.74;96702.44;4233092;28;5509;-68
2022/09/01 16:21:26;;;;;;;;;;;;;;;25.32;49.89;96693.81;4233132;28;5739;-68
2022/09/01 16:23:40;;;;;;;;;;;;;;;25.31;49.61;96698.41;4233002;28;5592;-67
2022/09/01 16:25:43;;;;;;;;;;;;;;;25.32;49.83;96696.50;4234034;28;5677;-68
2022/09/01 16:27:46;;;;;;;;;;;;;;;25.31;49.86;96695.69;4233527;28;5658;-68
2022/09/01 16:29:53;;;;;;;;;;;;;;;25.30;49.91;96696.81;4231630;28;5597;-68